الصفحة الرئيسية
METAR-TAF:

METAR-TAF

مطار :

مدينة بنما, بنما

دائرة عرض: 08-59N, خط طول: 079-31W, ارتفاع: 13 متر

مراقبة الطقس الحالي

تاريخ ووقت الإصدار 25 دقيقة قبل الساعة 05:00UTC
ريح 6 عقدة من الشمال/الشمال الغربي
درجة الحرارة 26°درجة مئوية
الرطوبة 84%
ضغط 1012 hPa

METAR: MPMG 290500Z AUTO 33006KT //// R01///// // NCD 26/23 Q1012

زمن: 00:25 (05:25 UTC)

توقعات

تاريخ ووقت الإصدار 6ساعات و 25 دقيقة قبل الساعة 23:00UTC
التوقعات صالحة من29 الساعة 00 UTC إلى 29 الساعة 12 UTC
ريح 10 عقدة من الشمال
الرؤية 10 كم أو أكثر
غيوم قليلة على ارتفاع 1800 قدم
مؤقت
من 29 الساعة 04 UTC إلى 29 الساعة 08 UTC
ريح 2 عقدةمن اتجاهات متغيرة

TAF: MPMG 282300Z 2900/2912 35010KT 9999 FEW018 TEMPO 2904/2908 VRB02KT

أرصاد الطقس والتوقعات من أكثر من 4000 مطار (تقارير الطقس للمطار METAR والتنبؤ بالطقس بالمطارTAF).

المحطات المتاحة هي النقط الصفراء والحمراء على الخريطة.

حرك المؤشر فوق النقطة لمعرفة اسم المحطة.

ثم انقر لمعرفة أرصاد وتوقعات الطقس.

لتغيير الخارطة: اضغط على الأزرار الخضراء مع رمز الصليب الأسود للتكبير. على الزر الأخضر مع شرطة للتصغير، أو على الأسهم الخضراء للخرائط المجاورة.


METAR-TAF: